Time;durP1;ratioP1;P1;durP2;ratioP2;P2;SDS_P1;SDS_P2;PMS_P1;PMS_P2;Temp;Humidity;BMP_temperature;BMP_pressure;BME280_temperature;BME280_humidity;BME280_pressure;Samples;Min_cycle;Max_cycle;Signal;HPM_P1;HPM_P2
2023/10/04 00:00:15;;;;;;;12.52;3.10;;;;;;;10.91;100.00;102482.00;5092193;28;20012;-77
2023/10/04 00:02:49;;;;;;;5.05;2.85;;;;;;;10.89;100.00;102487.25;5024948;28;20245;-77
2023/10/04 00:05:19;;;;;;;13.98;3.67;;;;;;;10.95;100.00;102497.69;5042731;28;20052;-77
2023/10/04 00:07:50;;;;;;;10.82;2.95;;;;;;;11.00;100.00;102495.94;5027268;28;20461;-77
2023/10/04 00:10:16;;;;;;;10.65;3.17;;;;;;;11.01;100.00;102495.06;5043667;28;20021;-77
2023/10/04 00:12:43;;;;;;;5.13;2.78;;;;;;;10.99;100.00;102489.00;5028588;28;20381;-77
2023/10/04 00:15:09;;;;;;;11.55;3.22;;;;;;;11.04;100.00;102501.16;5044042;28;20025;-77
2023/10/04 00:17:42;;;;;;;13.02;3.00;;;;;;;11.08;100.00;102506.38;5029370;28;20029;-76
2023/10/04 00:20:17;;;;;;;11.30;2.97;;;;;;;11.16;100.00;102514.25;5010800;28;20029;-77
2023/10/04 00:22:46;;;;;;;14.10;3.60;;;;;;;11.23;100.00;102505.53;5030150;28;20026;-77
2023/10/04 00:25:16;;;;;;;9.95;2.58;;;;;;;11.30;100.00;102499.44;5009613;28;20029;-77
2023/10/04 00:27:42;;;;;;;10.13;2.92;;;;;;;11.38;100.00;102492.50;5032036;28;20070;-77
2023/10/04 00:30:12;;;;;;;11.77;3.45;;;;;;;11.44;100.00;102497.72;5021385;28;20117;-77
2023/10/04 00:32:38;;;;;;;6.97;2.30;;;;;;;11.44;100.00;102489.88;5032147;28;20087;-77
2023/10/04 00:35:09;;;;;;;9.52;3.10;;;;;;;11.52;100.00;102494.22;5046194;28;20496;-77
2023/10/04 00:37:35;;;;;;;11.43;2.95;;;;;;;11.53;100.00;102494.19;5008729;28;20113;-76
2023/10/04 00:40:00;;;;;;;13.10;3.30;;;;;;;11.56;100.00;102485.50;5019379;28;20166;-76
2023/10/04 00:42:26;;;;;;;13.32;3.38;;;;;;;11.57;100.00;102492.44;5055989;28;20030;-77
2023/10/04 00:44:52;;;;;;;8.25;2.85;;;;;;;11.53;100.00;102491.59;5041452;28;20021;-77
2023/10/04 00:47:17;;;;;;;6.35;2.65;;;;;;;11.45;100.00;102502.06;5011833;28;20046;-77
2023/10/04 00:49:45;;;;;;;11.85;2.90;;;;;;;11.36;100.00;102502.06;5042987;28;20372;-77
2023/10/04 00:52:12;;;;;;;8.43;2.72;;;;;;;11.28;100.00;102502.91;5027228;28;20036;-76
2023/10/04 00:54:40;;;;;;;14.48;3.28;;;;;;;11.23;100.00;102506.41;5038574;28;20032;-77
2023/10/04 00:57:08;;;;;;;9.73;3.00;;;;;;;11.17;100.00;102516.84;5030264;28;20491;-77
2023/10/04 00:59:33;;;;;;;12.68;2.95;;;;;;;11.13;100.00;102522.06;5043902;28;20026;-77
2023/10/04 01:01:59;;;;;;;9.63;3.05;;;;;;;11.11;100.00;102523.78;5031299;28;20033;-77
2023/10/04 01:04:27;;;;;;;11.43;3.10;;;;;;;11.06;100.00;102525.53;5045504;28;20028;-77
2023/10/04 01:06:52;;;;;;;11.80;3.33;;;;;;;11.00;100.00;102522.03;5005821;28;20116;-77
2023/10/04 01:09:19;;;;;;;10.00;3.10;;;;;;;11.00;100.00;102522.03;5046219;28;20127;-77
2023/10/04 01:11:48;;;;;;;9.65;3.35;;;;;;;11.00;100.00;102529.00;5024344;28;20037;-77
2023/10/04 01:14:25;;;;;;;12.02;3.30;;;;;;;10.98;100.00;102530.72;5028660;28;20030;-78
2023/10/04 01:16:52;;;;;;;12.10;3.38;;;;;;;10.96;100.00;102525.53;5032006;28;20474;-76
2023/10/04 01:19:18;;;;;;;12.82;3.15;;;;;;;10.94;100.00;102535.06;5050678;28;20114;-77
2023/10/04 01:21:45;;;;;;;12.57;3.22;;;;;;;10.95;100.00;102534.22;5034474;28;20120;-77
2023/10/04 01:24:11;;;;;;;11.85;3.38;;;;;;;10.92;100.00;102531.63;5005103;28;20025;-77
2023/10/04 01:26:37;;;;;;;15.15;3.60;;;;;;;10.92;100.00;102533.31;5035767;28;20099;-77
2023/10/04 01:29:11;;;;;;;12.30;3.75;;;;;;;10.94;100.00;102536.81;5019875;28;20121;-76
2023/10/04 01:31:37;;;;;;;9.35;4.00;;;;;;;10.95;100.00;102539.44;5031446;28;20040;-77
2023/10/04 01:34:03;;;;;;;15.23;3.75;;;;;;;10.97;100.00;102537.69;5020364;28;20032;-77
2023/10/04 01:36:32;;;;;;;12.90;3.63;;;;;;;10.95;100.00;102535.94;5039356;28;20538;-76
2023/10/04 01:38:57;;;;;;;8.10;3.28;;;;;;;10.98;100.00;102535.94;5020548;28;20030;-77
2023/10/04 01:41:24;;;;;;;10.25;3.20;;;;;;;10.98;100.00;102539.44;5038389;28;20030;-77
2023/10/04 01:43:53;;;;;;;7.65;3.15;;;;;;;10.99;100.00;102538.56;5023371;28;20059;-77
2023/10/04 01:46:18;;;;;;;9.75;3.97;;;;;;;10.98;100.00;102535.94;5047148;28;20101;-77
2023/10/04 01:48:44;;;;;;;11.52;3.85;;;;;;;10.95;100.00;102531.63;5089098;28;20397;-77
2023/10/04 01:51:09;;;;;;;12.38;3.72;;;;;;;10.96;100.00;102532.50;5024402;28;20025;-77
2023/10/04 01:53:35;;;;;;;9.32;3.05;;;;;;;10.97;100.00;102542.03;5052989;28;20023;-77
2023/10/04 01:56:02;;;;;;;10.77;4.10;;;;;;;10.93;100.00;102528.13;5021734;28;20056;-77
2023/10/04 01:58:28;;;;;;;11.80;3.83;;;;;;;10.97;100.00;102527.25;5049498;28;20037;-77
2023/10/04 02:00:53;;;;;;;12.75;3.50;;;;;;;10.96;100.00;102533.34;5025868;28;20093;-77
2023/10/04 02:03:23;;;;;;;8.32;3.42;;;;;;;10.98;100.00;102528.13;5094700;28;20051;-77
2023/10/04 02:05:50;;;;;;;10.55;3.60;;;;;;;10.98;100.00;102529.00;5023842;28;20042;-77
2023/10/04 02:08:16;;;;;;;10.63;3.70;;;;;;;10.99;100.00;102532.50;5047390;28;20018;-77
2023/10/04 02:10:41;;;;;;;9.07;3.15;;;;;;;10.99;100.00;102533.38;5031708;28;20033;-77
2023/10/04 02:13:08;;;;;;;10.45;3.22;;;;;;;10.96;100.00;102529.88;5047627;28;20090;-77
2023/10/04 02:15:38;;;;;;;15.32;3.50;;;;;;;10.99;100.00;102532.50;5033439;28;20033;-77
2023/10/04 02:18:04;;;;;;;15.90;3.95;;;;;;;11.00;100.00;102535.09;5008298;28;20481;-77
2023/10/04 02:20:33;;;;;;;9.82;3.65;;;;;;;11.03;100.00;102536.84;5035041;28;20030;-77
2023/10/04 02:22:58;;;;;;;9.50;3.40;;;;;;;11.01;100.00;102536.81;5052372;28;20041;-77
2023/10/04 02:25:24;;;;;;;14.32;3.65;;;;;;;11.01;100.00;102531.59;5037868;28;20030;-78
2023/10/04 02:27:52;;;;;;;7.07;2.95;;;;;;;11.02;100.00;102525.53;5021215;28;20029;-77
2023/10/04 02:30:26;;;;;;;7.82;3.40;;;;;;;11.06;100.00;102529.03;5009081;28;20036;-77
2023/10/04 02:32:52;;;;;;;9.20;3.65;;;;;;;11.06;100.00;102523.81;5021669;28;20491;-77
2023/10/04 02:35:25;;;;;;;12.95;3.47;;;;;;;11.07;100.00;102520.31;5039744;28;20045;-77
2023/10/04 02:37:54;;;;;;;10.85;3.33;;;;;;;11.04;100.00;102520.31;5023993;28;20030;-77
2023/10/04 02:40:22;;;;;;;11.00;3.95;;;;;;;11.08;100.00;102532.47;5040075;28;20037;-77
2023/10/04 02:42:48;;;;;;;12.68;3.67;;;;;;;11.06;100.00;102521.19;5025998;28;20033;-77
2023/10/04 02:45:18;;;;;;;13.57;3.35;;;;;;;11.09;100.00;102536.00;5035069;28;20040;-77
2023/10/04 02:47:48;;;;;;;9.73;3.60;;;;;;;11.10;100.00;102537.72;5047649;28;20476;-77
2023/10/04 02:50:17;;;;;;;11.63;3.40;;;;;;;11.08;100.00;102544.66;5032149;28;20119;-77
2023/10/04 02:52:44;;;;;;;9.43;3.63;;;;;;;11.05;100.00;102542.06;5047916;28;20017;-77
2023/10/04 02:55:09;;;;;;;14.52;4.15;;;;;;;10.99;100.00;102546.41;5034032;28;20217;-77
2023/10/04 02:57:34;;;;;;;7.72;3.33;;;;;;;11.00;100.00;102549.88;5048319;28;20114;-77
2023/10/04 03:00:10;;;;;;;12.88;3.33;;;;;;;10.98;100.00;102544.66;5034283;28;20026;-77
2023/10/04 03:02:36;;;;;;;15.70;3.47;;;;;;;10.97;100.00;102549.88;5049193;28;20085;-77
2023/10/04 03:05:01;;;;;;;9.85;3.40;;;;;;;10.99;100.00;102555.97;5035107;28;20480;-77
2023/10/04 03:07:27;;;;;;;9.88;3.40;;;;;;;11.00;100.00;102557.72;5049568;28;20428;-77
2023/10/04 03:09:54;;;;;;;10.25;3.38;;;;;;;11.02;100.00;102548.16;5035858;28;20025;-77
2023/10/04 03:12:19;;;;;;;12.13;3.85;;;;;;;10.97;100.00;102545.53;5053255;28;20032;-77
2023/10/04 03:14:44;;;;;;;12.57;3.40;;;;;;;10.93;100.00;102549.00;5034391;28;20030;-77
2023/10/04 03:17:15;;;;;;;8.82;3.15;;;;;;;10.86;100.00;102555.06;5049399;28;20028;-77
2023/10/04 03:19:42;;;;;;;9.85;3.17;;;;;;;10.82;100.00;102571.56;5036284;28;20473;-77
2023/10/04 03:22:10;;;;;;;13.57;3.65;;;;;;;10.78;100.00;102573.28;5022532;28;20061;-77
2023/10/04 03:24:35;;;;;;;11.98;3.53;;;;;;;10.73;100.00;102563.72;5036791;28;20101;-77
2023/10/04 03:27:01;;;;;;;9.43;3.97;;;;;;;10.67;100.00;102569.78;5021792;28;20141;-77
2023/10/04 03:29:28;;;;;;;13.68;3.60;;;;;;;10.63;100.00;102561.97;5026664;28;20037;-77
2023/10/04 03:31:53;;;;;;;14.25;3.47;;;;;;;10.58;100.00;102563.66;5015180;28;20492;-77
2023/10/04 03:34:22;;;;;;;19.13;4.10;;;;;;;10.54;100.00;102566.25;5042278;28;20105;-77
2023/10/04 03:36:48;;;;;;;13.10;3.92;;;;;;;10.49;100.00;102561.88;5028252;28;20033;-77
2023/10/04 03:39:13;;;;;;;12.77;3.80;;;;;;;10.43;100.00;102565.34;5042014;28;20025;-77
2023/10/04 03:41:42;;;;;;;12.32;3.15;;;;;;;10.38;100.00;102560.97;5028858;28;20384;-77
2023/10/04 03:44:07;;;;;;;14.20;3.83;;;;;;;10.31;100.00;102554.88;5042573;28;20026;-77
2023/10/04 03:46:33;;;;;;;13.20;3.92;;;;;;;10.28;100.00;102566.13;5043329;28;20022;-77
2023/10/04 03:48:58;;;;;;;15.32;3.90;;;;;;;10.24;100.00;102563.50;5033884;28;20106;-77
2023/10/04 03:51:24;;;;;;;15.05;4.28;;;;;;;10.21;100.00;102566.94;5034418;28;20067;-77
2023/10/04 03:53:50;;;;;;;13.77;3.95;;;;;;;10.18;100.00;102564.31;5044155;28;20390;-77
2023/10/04 03:56:16;;;;;;;16.75;4.53;;;;;;;10.17;100.00;102556.47;5022566;28;20035;-77
2023/10/04 03:58:41;;;;;;;12.52;4.05;;;;;;;10.15;100.00;102553.88;5056627;28;20015;-77
2023/10/04 04:01:07;;;;;;;13.43;3.95;;;;;;;10.11;100.00;102544.31;5024659;28;20590;-77
2023/10/04 04:03:33;;;;;;;12.05;4.10;;;;;;;10.08;100.00;102539.94;5052932;28;20037;-77
2023/10/04 04:05:58;;;;;;;13.27;4.18;;;;;;;10.11;100.00;102543.44;5022615;28;20507;-77
2023/10/04 04:08:25;;;;;;;13.15;4.10;;;;;;;10.11;100.00;102548.66;5049077;28;20025;-77
2023/10/04 04:10:51;;;;;;;20.48;4.60;;;;;;;10.04;100.00;102545.13;5034313;28;20111;-77
2023/10/04 04:13:16;;;;;;;8.23;3.80;;;;;;;10.05;100.00;102558.16;5044711;28;20478;-77
2023/10/04 04:15:42;;;;;;;14.02;4.43;;;;;;;10.05;100.00;102546.88;5022056;28;20446;-77
2023/10/04 04:18:19;;;;;;;12.80;3.80;;;;;;;10.02;100.00;102546.84;5050199;28;20033;-77
2023/10/04 04:20:46;;;;;;;13.07;4.22;;;;;;;9.99;100.00;102552.91;5036217;28;20042;-77
2023/10/04 04:23:12;;;;;;;14.35;4.57;;;;;;;9.97;100.00;102548.53;5019648;28;20057;-77
2023/10/04 04:25:38;;;;;;;13.85;4.30;;;;;;;9.92;100.00;102535.50;5036730;28;20025;-78
2023/10/04 04:28:03;;;;;;;15.05;4.40;;;;;;;9.95;100.00;102532.03;5020400;28;20476;-77
2023/10/04 04:30:31;;;;;;;15.68;4.85;;;;;;;9.95;100.00;102537.25;5032960;28;20430;-77
2023/10/04 04:32:56;;;;;;;10.85;3.97;;;;;;;9.91;100.00;102538.97;5021370;28;20022;-77
2023/10/04 04:38:17;;;;;;;13.38;4.35;;;;;;;9.87;100.00;102536.31;5020874;28;20037;-77
2023/10/04 04:40:48;;;;;;;15.02;4.63;;;;;;;9.85;100.00;102541.53;5039723;28;20389;-77
2023/10/04 04:45:50;;;;;;;14.93;4.47;;;;;;;9.81;100.00;102550.19;5037688;28;20170;-77
2023/10/04 04:48:18;;;;;;;13.52;4.40;;;;;;;9.82;100.00;102546.72;5050448;28;20115;-77
2023/10/04 04:50:43;;;;;;;15.50;3.95;;;;;;;9.77;100.00;102541.47;5026217;28;20110;-77
2023/10/04 04:53:14;;;;;;;15.52;4.22;;;;;;;9.74;100.00;102536.22;5046481;28;20095;-77
2023/10/04 04:55:39;;;;;;;16.70;4.78;;;;;;;9.68;100.00;102546.63;5019157;28;20025;-77
2023/10/04 04:58:06;;;;;;;14.02;4.40;;;;;;;9.69;100.00;102548.38;5047876;28;20036;-77
2023/10/04 05:00:31;;;;;;;12.45;4.00;;;;;;;9.68;100.00;102551.84;5032320;28;20118;-77
2023/10/04 05:02:59;;;;;;;15.13;4.50;;;;;;;9.65;100.00;102541.41;5048361;28;20053;-77
2023/10/04 05:05:24;;;;;;;14.93;4.72;;;;;;;9.60;100.00;102532.66;5033927;28;20037;-77
2023/10/04 05:07:50;;;;;;;18.58;4.65;;;;;;;9.58;100.00;102540.47;5048141;28;20029;-77
2023/10/04 05:10:17;;;;;;;18.23;5.20;;;;;;;9.52;100.00;102543.03;5035274;28;20040;-77
2023/10/04 05:12:43;;;;;;;17.20;4.97;;;;;;;9.52;100.00;102556.06;5055987;28;20121;-77
2023/10/04 05:15:22;;;;;;;10.27;4.15;;;;;;;9.53;100.00;102576.00;5056333;28;20439;-77
2023/10/04 05:17:50;;;;;;;16.58;5.00;;;;;;;9.47;100.00;102583.75;5050964;28;20029;-77
2023/10/04 05:20:19;;;;;;;13.95;5.22;;;;;;;9.47;100.00;102593.31;5054826;28;20025;-77
2023/10/04 05:22:45;;;;;;;11.85;4.28;;;;;;;9.43;100.00;102583.72;5059426;28;20399;-77
2023/10/04 05:25:11;;;;;;;16.95;4.80;;;;;;;9.43;100.00;102583.72;5053180;28;20515;-77
2023/10/04 05:27:36;;;;;;;14.68;4.43;;;;;;;9.43;100.00;102594.16;5075486;28;20059;-77
2023/10/04 05:30:03;;;;;;;14.15;4.57;;;;;;;9.40;100.00;102599.31;5018778;28;20025;-77
2023/10/04 05:32:29;;;;;;;17.23;4.97;;;;;;;9.40;100.00;102587.19;5023875;28;20107;-77
2023/10/04 05:34:55;;;;;;;15.00;5.25;;;;;;;9.43;100.00;102597.63;5043709;28;20464;-77
2023/10/04 05:37:20;;;;;;;14.38;4.68;;;;;;;9.38;100.00;102587.19;5022076;28;20029;-77
2023/10/04 05:39:45;;;;;;;17.20;4.40;;;;;;;9.40;100.00;102594.13;5043845;28;20041;-77
2023/10/04 05:42:11;;;;;;;18.83;4.93;;;;;;;9.37;100.00;102594.94;5023073;28;20034;-77
2023/10/04 05:44:36;;;;;;;21.55;5.30;;;;;;;9.35;100.00;102586.25;5042939;28;20033;-77
2023/10/04 05:47:01;;;;;;;18.65;5.30;;;;;;;9.37;100.00;102607.97;5020819;28;20056;-77
2023/10/04 05:49:26;;;;;;;13.70;4.80;;;;;;;9.35;100.00;102596.66;5044720;28;20104;-77
2023/10/04 05:51:52;;;;;;;13.75;4.80;;;;;;;9.37;100.00;102605.38;5030093;28;20354;-77
2023/10/04 05:54:17;;;;;;;17.27;5.25;;;;;;;9.35;100.00;102600.16;5045429;28;20531;-77
2023/10/04 05:56:42;;;;;;;16.55;4.97;;;;;;;9.36;100.00;102609.72;5033025;28;20026;-77
2023/10/04 05:59:10;;;;;;;15.60;5.03;;;;;;;9.41;100.00;102614.06;5049245;28;20022;-77
2023/10/04 06:01:37;;;;;;;16.00;4.90;;;;;;;9.40;100.00;102610.59;5035734;28;20037;-77
2023/10/04 06:04:05;;;;;;;16.33;4.93;;;;;;;9.37;100.00;102615.78;5049866;28;20040;-77
2023/10/04 06:06:32;;;;;;;17.95;4.90;;;;;;;9.39;100.00;102619.28;5036671;28;20037;-77
2023/10/04 06:08:58;;;;;;;13.20;4.88;;;;;;;9.43;100.00;102628.84;5050862;28;20023;-77
2023/10/04 06:11:24;;;;;;;16.27;4.68;;;;;;;9.45;100.00;102618.44;5033875;28;20473;-77
2023/10/04 06:13:50;;;;;;;16.83;5.20;;;;;;;9.45;100.00;102626.25;5052055;28;20031;-77
2023/10/04 06:16:19;;;;;;;12.00;4.72;;;;;;;9.45;100.00;102621.94;5037306;28;20033;-77
2023/10/04 06:18:47;;;;;;;16.40;6.22;;;;;;;9.48;100.00;102624.59;5008317;28;20021;-77
2023/10/04 06:21:16;;;;;;;17.58;5.20;;;;;;;9.51;100.00;102626.31;5036669;28;20461;-77
2023/10/04 06:23:44;;;;;;;17.85;5.07;;;;;;;9.52;100.00;102628.94;5022551;28;20480;-77
2023/10/04 06:26:09;;;;;;;15.55;5.03;;;;;;;9.54;100.00;102635.03;5038632;28;20569;-77
2023/10/04 06:28:35;;;;;;;12.35;4.32;;;;;;;9.54;100.00;102636.75;5022855;28;20030;-77
2023/10/04 06:31:02;;;;;;;12.98;4.45;;;;;;;9.58;100.00;102636.81;5040323;28;20376;-77
2023/10/04 06:33:28;;;;;;;16.90;4.35;;;;;;;9.60;100.00;102639.44;5022870;28;20101;-77
2023/10/04 06:35:53;;;;;;;20.60;4.95;;;;;;;9.64;100.00;102643.78;5037426;28;20021;-77
2023/10/04 06:38:20;;;;;;;11.90;5.63;;;;;;;9.66;100.00;102642.09;5026701;28;20486;-77
2023/10/04 06:40:46;;;;;;;18.58;4.90;;;;;;;9.73;100.00;102637.81;5028549;28;20034;-77
2023/10/04 06:43:14;;;;;;;13.70;4.88;;;;;;;9.75;100.00;102636.97;5037842;28;20485;-77
2023/10/04 06:45:40;;;;;;;19.85;5.03;;;;;;;9.81;100.00;102633.56;5013876;28;20440;-77
2023/10/04 06:48:05;;;;;;;16.77;5.03;;;;;;;9.86;100.00;102644.88;5037136;28;20022;-76
2023/10/04 06:50:35;;;;;;;20.73;5.35;;;;;;;9.92;100.00;102654.47;5039147;28;20052;-77
2023/10/04 06:53:03;;;;;;;13.00;5.43;;;;;;;9.96;100.00;102649.28;5031113;28;20110;-77
2023/10/04 06:55:32;;;;;;;14.95;5.28;;;;;;;10.05;100.00;102664.13;5049870;28;20111;-77
2023/10/04 06:57:58;;;;;;;12.75;4.65;;;;;;;10.08;100.00;102664.16;5027618;28;20040;-77
2023/10/04 07:00:35;;;;;;;14.13;4.68;;;;;;;10.16;100.00;102666.81;5057696;28;20366;-77
2023/10/04 07:03:01;;;;;;;14.00;4.85;;;;;;;10.24;100.00;102655.59;5027159;28;20392;-77
2023/10/04 07:05:29;;;;;;;16.13;5.13;;;;;;;10.30;100.00;102650.44;5058399;28;20029;-77
2023/10/04 07:07:58;;;;;;;16.60;4.35;;;;;;;10.39;100.00;102661.78;5024922;28;20037;-77
2023/10/04 07:10:26;;;;;;;12.95;4.40;;;;;;;10.45;100.00;102654.00;5057471;28;20024;-77
2023/10/04 07:12:52;;;;;;;12.95;4.93;;;;;;;10.53;100.00;102654.94;5026540;28;20052;-77
2023/10/04 07:15:19;;;;;;;17.17;4.80;;;;;;;10.63;100.00;102648.03;5052068;28;20133;-77
2023/10/04 07:17:45;;;;;;;14.75;4.65;;;;;;;10.71;100.00;102648.94;5035682;28;20036;-77
2023/10/04 07:20:15;;;;;;;9.38;4.45;;;;;;;10.79;100.00;102652.47;5051137;28;20380;-77
2023/10/04 07:22:45;;;;;;;16.52;4.88;;;;;;;10.88;100.00;102649.00;5035844;28;20511;-77
2023/10/04 07:25:12;;;;;;;15.70;4.65;;;;;;;10.97;100.00;102652.50;5023143;28;20110;-77
2023/10/04 07:27:39;;;;;;;15.07;5.20;;;;;;;11.06;100.00;102646.47;5037462;28;20045;-77
2023/10/04 07:30:07;;;;;;;10.80;4.55;;;;;;;11.10;100.00;102645.59;5012641;28;20105;-77
2023/10/04 07:32:32;;;;;;;12.80;4.70;;;;;;;11.21;100.00;102637.78;5019172;28;20057;-77
2023/10/04 07:34:57;;;;;;;12.85;4.80;;;;;;;11.29;100.00;102651.75;5021333;28;20461;-77
2023/10/04 07:37:23;;;;;;;13.10;4.55;;;;;;;11.38;100.00;102653.50;5040164;28;20150;-77
2023/10/04 07:39:48;;;;;;;15.23;4.47;;;;;;;11.47;100.00;102659.59;5023137;28;20120;-77
2023/10/04 07:42:14;;;;;;;20.33;5.10;;;;;;;11.50;100.00;102661.34;5025350;28;20480;-77
2023/10/04 07:44:40;;;;;;;15.23;4.20;;;;;;;11.61;100.00;102666.63;5024866;28;20029;-77
2023/10/04 07:47:05;;;;;;;13.80;5.07;;;;;;;11.67;100.00;102672.72;5016326;28;20018;-77
2023/10/04 07:49:31;;;;;;;15.15;5.10;;;;;;;11.73;100.00;102664.88;5047195;28;20031;-77
2023/10/04 07:51:57;;;;;;;17.92;5.20;;;;;;;11.83;100.00;102670.97;5027695;28;20419;-77
2023/10/04 07:54:23;;;;;;;13.25;4.97;;;;;;;11.97;100.00;102675.34;5024312;28;20430;-76
2023/10/04 07:56:51;;;;;;;13.70;5.00;;;;;;;12.10;100.00;102679.75;5039252;28;20038;-77
2023/10/04 07:59:19;;;;;;;14.30;5.00;;;;;;;12.17;100.00;102678.88;5025380;28;20026;-77
2023/10/04 08:01:45;;;;;;;15.15;4.63;;;;;;;12.28;100.00;102679.72;5040615;28;20024;-77
2023/10/04 08:04:11;;;;;;;12.73;4.75;;;;;;;12.41;100.00;102677.94;5024101;28;20036;-77
2023/10/04 08:06:40;;;;;;;15.57;4.53;;;;;;;12.53;100.00;102679.69;5043854;28;20030;-77
2023/10/04 08:09:06;;;;;;;16.50;4.68;;;;;;;12.65;100.00;102687.47;5023729;28;20043;-77
2023/10/04 08:11:33;;;;;;;13.05;4.18;;;;;;;12.74;100.00;102682.22;5039427;28;20477;-77
2023/10/04 08:14:07;;;;;;;13.80;4.20;;;;;;;12.80;100.00;102682.19;5029484;28;20040;-77
2023/10/04 08:16:35;;;;;;;15.68;4.43;;;;;;;12.90;100.00;102688.28;5036131;28;20034;-77
2023/10/04 08:19:03;;;;;;;16.77;4.60;;;;;;;12.94;100.00;102679.53;5033164;28;20025;-77
2023/10/04 08:21:29;;;;;;;9.00;4.28;;;;;;;13.02;100.00;102692.59;5030789;28;20108;-77
2023/10/04 08:23:54;;;;;;;14.18;5.10;;;;;;;13.09;100.00;102694.31;5041781;28;20044;-77
2023/10/04 08:26:22;;;;;;;15.35;3.92;;;;;;;13.06;100.00;102699.56;5025059;28;20046;-77
2023/10/04 08:28:48;;;;;;;15.60;4.60;;;;;;;13.05;100.00;102692.59;5050619;28;20036;-77
2023/10/04 08:31:16;;;;;;;13.73;4.43;;;;;;;13.06;100.00;102694.31;5010137;28;20103;-77
2023/10/04 08:33:43;;;;;;;11.27;3.95;;;;;;;13.05;100.00;102687.34;5049011;28;20022;-77
2023/10/04 08:36:16;;;;;;;13.18;4.65;;;;;;;13.11;100.00;102701.28;5023344;27;20045;-77
2023/10/04 08:38:42;;;;;;;11.27;4.00;;;;;;;13.11;100.00;102697.78;5045345;28;20026;-77
2023/10/04 08:41:08;;;;;;;12.18;4.22;;;;;;;13.09;100.00;102694.31;5027921;28;20033;-77
2023/10/04 08:43:33;;;;;;;12.98;4.35;;;;;;;13.20;100.00;102700.34;5045636;28;20025;-77
2023/10/04 08:45:59;;;;;;;14.32;4.40;;;;;;;13.32;100.00;102695.09;5018301;28;20037;-77
2023/10/04 08:48:29;;;;;;;13.18;4.50;;;;;;;13.46;100.00;102694.16;5049197;28;20022;-77
2023/10/04 08:51:13;;;;;;;15.52;3.70;;;;;;;13.61;100.00;102699.31;5028760;28;20582;-77
2023/10/04 08:53:55;;;;;;;16.10;5.22;;;;;;;13.80;100.00;102703.53;5049202;28;20035;-77
2023/10/04 08:56:23;;;;;;;12.35;4.00;;;;;;;13.91;100.00;102705.22;5007810;28;20044;-77
2023/10/04 08:58:50;;;;;;;15.23;4.60;;;;;;;14.02;100.00;102695.50;5047858;28;20551;-77
2023/10/04 09:01:19;;;;;;;11.15;4.80;;;;;;;14.16;100.00;102700.59;5031854;28;20029;-77
2023/10/04 09:03:44;;;;;;;17.60;4.75;;;;;;;14.23;100.00;102703.19;5050380;28;20034;-77
2023/10/04 09:06:11;;;;;;;13.68;4.18;;;;;;;14.22;100.00;102704.06;5029847;28;20025;-77
2023/10/04 09:08:40;;;;;;;14.80;4.45;;;;;;;14.22;100.00;102706.69;5044648;28;20046;-77
2023/10/04 09:11:10;;;;;;;10.40;4.00;;;;;;;14.25;100.00;102704.03;5036455;28;20055;-77
2023/10/04 09:13:41;;;;;;;12.35;4.13;;;;;;;14.33;100.00;102703.97;5040586;28;20054;-77
2023/10/04 09:16:37;;;;;;;11.43;4.38;;;;;;;14.43;100.00;102703.00;5040528;28;20068;-77
2023/10/04 09:19:08;;;;;;;12.10;3.78;;;;;;;14.46;100.00;102704.72;5048776;28;20032;-77
2023/10/04 09:21:38;;;;;;;10.57;4.28;;;;;;;14.49;100.00;102707.31;5034388;28;20034;-77
2023/10/04 09:24:09;;;;;;;12.30;4.38;;;;;;;14.54;100.00;102702.91;5021823;28;20104;-77
2023/10/04 09:26:36;;;;;;;14.60;4.35;;;;;;;14.67;100.00;102694.00;5031089;28;20037;-77
2023/10/04 09:29:02;;;;;;;11.52;4.03;;;;;;;14.76;100.00;102685.19;5022049;28;20370;-77
2023/10/04 09:31:27;;;;;;;15.30;5.10;;;;;;;14.78;100.00;102672.00;5007697;28;20021;-77
2023/10/04 09:33:54;;;;;;;10.23;4.50;;;;;;;14.87;100.00;102685.91;5021574;28;20075;-77
2023/10/04 09:36:35;;;;;;;16.73;4.55;;;;;;;14.94;100.00;102694.56;5038468;28;20543;-77
2023/10/04 09:39:08;;;;;;;12.48;4.22;;;;;;;15.04;100.00;102690.97;5023138;28;20504;-77
2023/10/04 09:41:47;;;;;;;12.75;4.70;;;;;;;15.07;100.00;102698.78;5036858;28;20022;-77
2023/10/04 09:44:27;;;;;;;11.23;4.20;;;;;;;15.04;100.00;102692.69;5006283;28;20025;-77
2023/10/04 09:46:56;;;;;;;11.10;4.22;;;;;;;15.04;100.00;102706.72;5012730;28;20030;-77
2023/10/04 09:49:22;;;;;;;10.38;4.20;;;;;;;15.09;100.00;102702.28;5045577;28;20520;-77
2023/10/04 09:51:49;;;;;;;10.75;4.70;;;;;;;15.16;100.00;102708.31;5027551;28;20034;-77
2023/10/04 09:54:17;;;;;;;9.30;4.03;;;;;;;15.14;100.00;102708.34;5026022;28;20133;-77
2023/10/04 09:56:44;;;;;;;12.95;4.53;;;;;;;15.23;100.00;102699.47;5043185;28;20028;-77
2023/10/04 09:59:11;;;;;;;13.88;4.68;;;;;;;15.29;100.00;102696.75;5026371;28;20561;-77
2023/10/04 10:01:39;;;;;;;9.70;3.85;;;;;;;15.31;100.00;102699.38;5044687;28;20030;-77
2023/10/04 10:04:09;;;;;;;15.77;4.30;;;;;;;15.42;100.00;102693.06;5025373;28;20033;-77
2023/10/04 10:06:49;;;;;;;14.38;5.05;;;;;;;15.60;100.00;102701.59;5030709;28;20027;-77
2023/10/04 10:09:19;;;;;;;11.43;4.20;;;;;;;15.66;100.00;102710.28;5024253;28;20099;-77
2023/10/04 10:11:46;;;;;;;12.70;4.50;;;;;;;15.68;100.00;102711.13;5047164;28;20027;-77
2023/10/04 10:14:14;;;;;;;15.93;3.80;;;;;;;15.65;100.00;102711.13;5023664;28;20041;-77
2023/10/04 10:16:42;;;;;;;8.60;3.55;;;;;;;15.57;100.00;102709.53;5039744;28;20053;-77
2023/10/04 10:19:08;;;;;;;11.65;4.10;;;;;;;15.53;100.00;102708.69;5034641;28;20026;-77
2023/10/04 10:22:08;;;;;;;11.65;4.00;;;;;;;15.61;100.00;102706.81;5033147;28;20029;-77
2023/10/04 10:24:34;;;;;;;12.35;3.90;;;;;;;15.68;100.00;102708.47;5027736;28;20034;-77
2023/10/04 10:27:07;;;;;;;13.43;4.40;;;;;;;15.79;100.00;102697.78;5046372;28;20443;-77
2023/10/04 10:29:36;;;;;;;13.73;4.10;;;;;;;15.93;100.00;102705.47;5026700;28;20046;-77
2023/10/04 10:32:13;;;;;;;11.55;4.10;;;;;;;16.00;100.00;102703.63;5033665;28;20016;-77
2023/10/04 10:34:38;;;;;;;9.63;3.78;;;;;;;16.05;100.00;102700.00;5028291;28;20037;-77
2023/10/04 10:37:17;;;;;;;11.80;3.88;;;;;;;16.21;100.00;102694.47;5042538;28;20076;-77
2023/10/04 10:39:45;;;;;;;10.50;3.53;;;;;;;16.37;100.00;102695.94;5029069;28;20041;-77
2023/10/04 10:42:11;;;;;;;11.35;3.63;;;;;;;16.50;100.00;102696.59;5046423;28;20063;-77
2023/10/04 10:44:39;;;;;;;10.52;4.30;;;;;;;16.50;100.00;102676.38;5042277;28;20037;-77
2023/10/04 10:47:14;;;;;;;11.40;4.10;;;;;;;16.51;100.00;102686.03;5017262;28;20550;-77
2023/10/04 10:49:58;;;;;;;13.00;3.75;;;;;;;16.56;100.00;102696.47;5049169;28;20026;-77
2023/10/04 10:52:28;;;;;;;9.18;3.50;;;;;;;16.58;100.00;102690.28;5022354;28;20484;-77
2023/10/04 10:54:56;;;;;;;10.68;3.67;;;;;;;16.58;100.00;102690.28;5049890;28;20112;-77
2023/10/04 10:57:23;;;;;;;9.30;4.05;;;;;;;16.61;100.00;102690.22;5020454;28;20025;-77
2023/10/04 10:59:55;;;;;;;10.38;3.78;;;;;;;16.61;100.00;102689.34;5050741;28;20086;-77
2023/10/04 11:02:21;;;;;;;10.93;4.17;;;;;;;16.75;100.00;102687.34;5036320;28;20033;-77
2023/10/04 11:04:48;;;;;;;12.25;4.10;;;;;;;16.81;100.00;102681.97;5051070;28;20284;-77
2023/10/04 11:07:17;;;;;;;9.70;3.67;;;;;;;16.93;100.00;102680.81;5036992;28;20026;-77
2023/10/04 11:09:47;;;;;;;11.13;4.07;;;;;;;17.04;100.00;102673.59;5052072;28;20078;-77
2023/10/04 11:12:12;;;;;;;11.68;3.83;;;;;;;17.08;100.00;102669.97;5036963;28;20484;-77
2023/10/04 11:14:38;;;;;;;15.60;4.45;;;;;;;17.15;100.00;102665.44;5012821;28;20029;-77
2023/10/04 11:17:06;;;;;;;9.75;3.70;;;;;;;17.19;100.00;102656.56;5038386;28;20540;-77
2023/10/04 11:19:32;;;;;;;10.70;4.05;;;;;;;17.27;100.00;102659.03;5021008;28;20358;-77